sensor_id;sensor_type;location;lat;lon;timestamp;pressure;altitude;pressure_sealevel;temperature;humidity
68594;BME280;55563;52.416;13.548;2023-02-22T00:00:32;101290.38;;;7.08;100.00
68594;BME280;55563;52.416;13.548;2023-02-22T00:02:53;101296.63;;;7.07;100.00
68594;BME280;55563;52.416;13.548;2023-02-22T00:04:59;101291.84;;;7.04;100.00
68594;BME280;55563;52.416;13.548;2023-02-22T00:06:59;101292.84;;;7.03;100.00
68594;BME280;55563;52.416;13.548;2023-02-22T00:09:01;101286.81;;;7.02;100.00
68594;BME280;55563;52.416;13.548;2023-02-22T00:11:06;101297.94;;;6.97;100.00
68594;BME280;55563;52.416;13.548;2023-02-22T00:13:11;101288.28;;;6.98;100.00
68594;BME280;55563;52.416;13.548;2023-02-22T00:15:14;101285.88;;;6.96;100.00
68594;BME280;55563;52.416;13.548;2023-02-22T00:17:15;101297.56;;;6.94;100.00
68594;BME280;55563;52.416;13.548;2023-02-22T00:19:15;101282.69;;;6.94;100.00
68594;BME280;55563;52.416;13.548;2023-02-22T00:21:17;101280.50;;;6.91;100.00
68594;BME280;55563;52.416;13.548;2023-02-22T00:23:20;101282.75;;;6.88;100.00
68594;BME280;55563;52.416;13.548;2023-02-22T00:25:23;101285.22;;;6.83;100.00
68594;BME280;55563;52.416;13.548;2023-02-22T00:27:24;101280.19;;;6.81;100.00
68594;BME280;55563;52.416;13.548;2023-02-22T00:29:25;101281.00;;;6.82;100.00
68594;BME280;55563;52.416;13.548;2023-02-22T00:31:26;101288.28;;;6.80;100.00
68594;BME280;55563;52.416;13.548;2023-02-22T00:33:26;101285.50;;;6.75;100.00
68594;BME280;55563;52.416;13.548;2023-02-22T00:35:29;101287.81;;;6.65;100.00
68594;BME280;55563;52.416;13.548;2023-02-22T00:37:31;101279.16;;;6.46;100.00
68594;BME280;55563;52.416;13.548;2023-02-22T00:39:32;101279.56;;;6.43;100.00
68594;BME280;55563;52.416;13.548;2023-02-22T00:41:33;101285.34;;;6.51;100.00
68594;BME280;55563;52.416;13.548;2023-02-22T00:43:33;101279.31;;;6.51;100.00
68594;BME280;55563;52.416;13.548;2023-02-22T00:45:35;101286.84;;;6.41;100.00
68594;BME280;55563;52.416;13.548;2023-02-22T00:47:36;101284.94;;;6.48;100.00
68594;BME280;55563;52.416;13.548;2023-02-22T00:49:37;101289.97;;;6.49;100.00
68594;BME280;55563;52.416;13.548;2023-02-22T00:51:38;101284.94;;;6.48;100.00
68594;BME280;55563;52.416;13.548;2023-02-22T00:53:39;101280.16;;;6.45;100.00
68594;BME280;55563;52.416;13.548;2023-02-22T00:55:39;101283.38;;;6.47;100.00
68594;BME280;55563;52.416;13.548;2023-02-22T00:57:40;101278.56;;;6.44;100.00
68594;BME280;55563;52.416;13.548;2023-02-22T00:59:41;101290.78;;;6.50;100.00
68594;BME280;55563;52.416;13.548;2023-02-22T01:01:41;101290.19;;;6.48;100.00
68594;BME280;55563;52.416;13.548;2023-02-22T01:03:42;101287.41;;;6.43;100.00
68594;BME280;55563;52.416;13.548;2023-02-22T01:05:44;101284.94;;;6.48;100.00
68594;BME280;55563;52.416;13.548;2023-02-22T01:07:45;101284.59;;;6.44;100.00
68594;BME280;55563;52.416;13.548;2023-02-22T01:09:46;101286.00;;;6.47;100.00
68594;BME280;55563;52.416;13.548;2023-02-22T01:11:51;101288.81;;;6.45;100.00
68594;BME280;55563;52.416;13.548;2023-02-22T01:13:54;101280.78;;;6.47;100.00
68594;BME280;55563;52.416;13.548;2023-02-22T01:15:56;101283.59;;;6.45;100.00
68594;BME280;55563;52.416;13.548;2023-02-22T01:17:57;101283.16;;;6.48;100.00
68594;BME280;55563;52.416;13.548;2023-02-22T01:19:59;101284.75;;;6.49;100.00
68594;BME280;55563;52.416;13.548;2023-02-22T01:22:01;101289.59;;;6.46;100.00
68594;BME280;55563;52.416;13.548;2023-02-22T01:24:05;101290.19;;;6.48;100.00
68594;BME280;55563;52.416;13.548;2023-02-22T01:26:06;101283.22;;;6.42;100.00
68594;BME280;55563;52.416;13.548;2023-02-22T01:28:06;101278.00;;;6.42;100.00
68594;BME280;55563;52.416;13.548;2023-02-22T01:30:09;101282.56;;;6.46;100.00
68594;BME280;55563;52.416;13.548;2023-02-22T01:32:11;101274.34;;;6.43;100.00
68594;BME280;55563;52.416;13.548;2023-02-22T01:34:12;101283.00;;;6.43;100.00
68594;BME280;55563;52.416;13.548;2023-02-22T01:36:15;101276.19;;;6.42;100.00
68594;BME280;55563;52.416;13.548;2023-02-22T01:38:16;101277.41;;;6.40;100.00
68594;BME280;55563;52.416;13.548;2023-02-22T01:40:29;101272.38;;;6.38;100.00
68594;BME280;55563;52.416;13.548;2023-02-22T01:42:30;101272.84;;;6.35;100.00
68594;BME280;55563;52.416;13.548;2023-02-22T01:44:33;101270.44;;;6.34;100.00
68594;BME280;55563;52.416;13.548;2023-02-22T01:46:34;101271.72;;;6.25;100.00
68594;BME280;55563;52.416;13.548;2023-02-22T01:48:46;101269.38;;;6.17;100.00
68594;BME280;55563;52.416;13.548;2023-02-22T01:50:58;101273.78;;;6.16;100.00
68594;BME280;55563;52.416;13.548;2023-02-22T01:53:01;101279.94;;;6.03;100.00
68594;BME280;55563;52.416;13.548;2023-02-22T01:55:02;101271.47;;;6.08;100.00
68594;BME280;55563;52.416;13.548;2023-02-22T01:57:23;101281.09;;;6.07;100.00
68594;BME280;55563;52.416;13.548;2023-02-22T01:59:25;101274.28;;;6.06;100.00
68594;BME280;55563;52.416;13.548;2023-02-22T02:01:28;101276.09;;;6.06;100.00
68594;BME280;55563;52.416;13.548;2023-02-22T02:03:32;101265.06;;;6.04;100.00
68594;BME280;55563;52.416;13.548;2023-02-22T02:05:36;101260.91;;;5.96;100.00
68594;BME280;55563;52.416;13.548;2023-02-22T02:07:37;101267.38;;;5.87;100.00
68594;BME280;55563;52.416;13.548;2023-02-22T02:09:47;101273.03;;;5.78;100.00
68594;BME280;55563;52.416;13.548;2023-02-22T02:11:52;101262.19;;;5.81;100.00
68594;BME280;55563;52.416;13.548;2023-02-22T02:13:56;101263.78;;;5.82;100.00
68594;BME280;55563;52.416;13.548;2023-02-22T02:15:57;101269.69;;;5.70;100.00
68594;BME280;55563;52.416;13.548;2023-02-22T02:18:03;101265.84;;;5.73;100.00
68594;BME280;55563;52.416;13.548;2023-02-22T02:20:13;101263.06;;;5.68;100.00
68594;BME280;55563;52.416;13.548;2023-02-22T02:27:10;101267.66;;;5.41;100.00
68594;BME280;55563;52.416;13.548;2023-02-22T02:32:15;101267.91;;;5.26;100.00
68594;BME280;55563;52.416;13.548;2023-02-22T02:34:39;101268.72;;;5.27;100.00
68594;BME280;55563;52.416;13.548;2023-02-22T02:36:55;101264.25;;;5.34;100.00
68594;BME280;55563;52.416;13.548;2023-02-22T02:39:23;101264.88;;;5.30;100.00
68594;BME280;55563;52.416;13.548;2023-02-22T02:41:33;101271.09;;;5.28;100.00
68594;BME280;55563;52.416;13.548;2023-02-22T02:43:46;101266.06;;;5.34;100.00
68594;BME280;55563;52.416;13.548;2023-02-22T02:46:01;101270.47;;;5.40;100.00
68594;BME280;55563;52.416;13.548;2023-02-22T02:48:05;101269.84;;;5.38;100.00
68594;BME280;55563;52.416;13.548;2023-02-22T02:50:16;101271.63;;;5.44;100.00
68594;BME280;55563;52.416;13.548;2023-02-22T02:52:20;101269.34;;;5.22;100.00
68594;BME280;55563;52.416;13.548;2023-02-22T02:54:23;101260.69;;;5.28;100.00
68594;BME280;55563;52.416;13.548;2023-02-22T02:56:26;101263.91;;;5.24;100.00
68594;BME280;55563;52.416;13.548;2023-02-22T02:58:27;101263.53;;;5.20;100.00
68594;BME280;55563;52.416;13.548;2023-02-22T03:00:30;101266.94;;;5.21;100.00
68594;BME280;55563;52.416;13.548;2023-02-22T03:08:06;101275.28;;;5.36;100.00
68594;BME280;55563;52.416;13.548;2023-02-22T03:12:50;101257.94;;;5.17;100.00
68594;BME280;55563;52.416;13.548;2023-02-22T03:15:06;101265.34;;;5.20;100.00
68594;BME280;55563;52.416;13.548;2023-02-22T03:17:19;101264.22;;;4.96;100.00
68594;BME280;55563;52.416;13.548;2023-02-22T03:19:50;101263.03;;;4.86;100.00
68594;BME280;55563;52.416;13.548;2023-02-22T03:22:01;101263.28;;;4.77;100.00
68594;BME280;55563;52.416;13.548;2023-02-22T03:24:11;101260.41;;;4.99;100.00
68594;BME280;55563;52.416;13.548;2023-02-22T03:26:21;101250.75;;;5.06;100.00
68594;BME280;55563;52.416;13.548;2023-02-22T03:28:26;101253.75;;;5.09;100.00
68594;BME280;55563;52.416;13.548;2023-02-22T03:30:41;101251.56;;;5.06;100.00
68594;BME280;55563;52.416;13.548;2023-02-22T03:32:49;101259.03;;;4.90;100.00
68594;BME280;55563;52.416;13.548;2023-02-22T03:35:00;101262.03;;;4.93;100.00
68594;BME280;55563;52.416;13.548;2023-02-22T03:37:10;101272.22;;;4.95;100.00
68594;BME280;55563;52.416;13.548;2023-02-22T03:39:17;101263.22;;;4.97;100.00
68594;BME280;55563;52.416;13.548;2023-02-22T03:41:22;101264.81;;;4.98;100.00
68594;BME280;55563;52.416;13.548;2023-02-22T03:43:30;101260.00;;;5.08;100.00
68594;BME280;55563;52.416;13.548;2023-02-22T03:45:38;101262.38;;;5.10;100.00
68594;BME280;55563;52.416;13.548;2023-02-22T03:47:44;101262.31;;;5.23;100.00
68594;BME280;55563;52.416;13.548;2023-02-22T03:49:51;101269.53;;;5.21;100.00
68594;BME280;55563;52.416;13.548;2023-02-22T03:51:53;101258.75;;;5.11;100.00
68594;BME280;55563;52.416;13.548;2023-02-22T03:53:59;101254.78;;;5.08;100.00
68594;BME280;55563;52.416;13.548;2023-02-22T03:56:06;101265.53;;;5.18;100.00
68594;BME280;55563;52.416;13.548;2023-02-22T03:58:10;101271.28;;;5.34;100.00
68594;BME280;55563;52.416;13.548;2023-02-22T04:00:16;101268.56;;;5.15;100.00
68594;BME280;55563;52.416;13.548;2023-02-22T04:02:18;101262.72;;;5.26;100.00
68594;BME280;55563;52.416;13.548;2023-02-22T04:04:19;101262.47;;;5.28;100.00
68594;BME280;55563;52.416;13.548;2023-02-22T04:06:22;101254.84;;;5.33;100.00
68594;BME280;55563;52.416;13.548;2023-02-22T04:08:23;101264.72;;;5.24;100.00
68594;BME280;55563;52.416;13.548;2023-02-22T04:10:24;101262.31;;;5.23;100.00
68594;BME280;55563;52.416;13.548;2023-02-22T04:12:25;101268.09;;;5.32;100.00
68594;BME280;55563;52.416;13.548;2023-02-22T04:14:31;101269.91;;;5.31;100.00
68594;BME280;55563;52.416;13.548;2023-02-22T04:16:32;101265.53;;;5.18;100.00
68594;BME280;55563;52.416;13.548;2023-02-22T04:18:33;101261.53;;;5.16;100.00
68594;BME280;55563;52.416;13.548;2023-02-22T04:20:34;101261.16;;;5.12;100.00
68594;BME280;55563;52.416;13.548;2023-02-22T04:22:43;101266.19;;;5.07;100.00
68594;BME280;55563;52.416;13.548;2023-02-22T04:24:44;101263.59;;;5.07;100.00
68594;BME280;55563;52.416;13.548;2023-02-22T04:26:45;101266.19;;;5.07;100.00
68594;BME280;55563;52.416;13.548;2023-02-22T04:28:45;101266.19;;;5.07;100.00
68594;BME280;55563;52.416;13.548;2023-02-22T04:30:49;101263.78;;;5.06;100.00
68594;BME280;55563;52.416;13.548;2023-02-22T04:32:51;101261.56;;;5.09;100.00
68594;BME280;55563;52.416;13.548;2023-02-22T04:34:54;101265.56;;;5.12;100.00
68594;BME280;55563;52.416;13.548;2023-02-22T04:36:56;101256.97;;;5.05;100.00
68594;BME280;55563;52.416;13.548;2023-02-22T04:38:57;101266.59;;;5.04;100.00
68594;BME280;55563;52.416;13.548;2023-02-22T04:41:00;101252.75;;;5.04;100.00
68594;BME280;55563;52.416;13.548;2023-02-22T04:43:01;101257.19;;;5.03;100.00
68594;BME280;55563;52.416;13.548;2023-02-22T04:45:04;101268.38;;;5.10;100.00
68594;BME280;55563;52.416;13.548;2023-02-22T04:47:08;101267.56;;;5.16;100.00
68594;BME280;55563;52.416;13.548;2023-02-22T04:49:08;101259.13;;;5.21;100.00
68594;BME280;55563;52.416;13.548;2023-02-22T04:51:12;101251.09;;;5.22;100.00
68594;BME280;55563;52.416;13.548;2023-02-22T04:53:19;101259.69;;;5.23;100.00
68594;BME280;55563;52.416;13.548;2023-02-22T04:55:19;101257.69;;;5.25;100.00
68594;BME280;55563;52.416;13.548;2023-02-22T04:57:22;101258.91;;;5.22;100.00
68594;BME280;55563;52.416;13.548;2023-02-22T04:59:24;101260.31;;;5.18;100.00
68594;BME280;55563;52.416;13.548;2023-02-22T05:01:35;101258.13;;;5.15;100.00
68594;BME280;55563;52.416;13.548;2023-02-22T05:03:37;101257.38;;;5.08;100.00
68594;BME280;55563;52.416;13.548;2023-02-22T05:05:38;101259.53;;;5.18;100.00
68594;BME280;55563;52.416;13.548;2023-02-22T05:07:38;101254.91;;;5.20;100.00
68594;BME280;55563;52.416;13.548;2023-02-22T05:09:39;101255.97;;;5.06;100.00
68594;BME280;55563;52.416;13.548;2023-02-22T05:11:40;101258.78;;;5.04;100.00
68594;BME280;55563;52.416;13.548;2023-02-22T05:13:40;101250.13;;;5.17;100.00
68594;BME280;55563;52.416;13.548;2023-02-22T05:15:41;101256.72;;;5.19;100.00
68594;BME280;55563;52.416;13.548;2023-02-22T05:17:42;101254.94;;;5.13;100.00
68594;BME280;55563;52.416;13.548;2023-02-22T05:19:43;101255.16;;;5.05;100.00
68594;BME280;55563;52.416;13.548;2023-02-22T05:21:43;101243.56;;;5.01;100.00
68594;BME280;55563;52.416;13.548;2023-02-22T05:23:44;101258.13;;;5.15;100.00
68594;BME280;55563;52.416;13.548;2023-02-22T05:25:45;101253.94;;;5.14;100.00
68594;BME280;55563;52.416;13.548;2023-02-22T05:27:53;101258.56;;;5.06;100.00
68594;BME280;55563;52.416;13.548;2023-02-22T05:29:54;101248.75;;;5.08;100.00
68594;BME280;55563;52.416;13.548;2023-02-22T05:31:55;101253.94;;;5.14;100.00
68594;BME280;55563;52.416;13.548;2023-02-22T05:33:57;101256.53;;;5.14;100.00
68594;BME280;55563;52.416;13.548;2023-02-22T05:35:58;101255.78;;;5.07;100.00
68594;BME280;55563;52.416;13.548;2023-02-22T05:37:59;101247.56;;;5.04;100.00
68594;BME280;55563;52.416;13.548;2023-02-22T05:40:02;101250.16;;;5.04;100.00
68594;BME280;55563;52.416;13.548;2023-02-22T05:42:04;101249.97;;;5.05;100.00
68594;BME280;55563;52.416;13.548;2023-02-22T05:44:05;101250.75;;;5.06;100.00
68594;BME280;55563;52.416;13.548;2023-02-22T05:46:06;101246.97;;;5.02;100.00
68594;BME280;55563;52.416;13.548;2023-02-22T05:48:07;101249.78;;;5.00;100.00
68594;BME280;55563;52.416;13.548;2023-02-22T05:50:08;101268.81;;;5.01;100.00
68594;BME280;55563;52.416;13.548;2023-02-22T05:52:09;101257.41;;;5.02;100.00
68594;BME280;55563;52.416;13.548;2023-02-22T05:54:09;101264.22;;;5.03;100.00
68594;BME280;55563;52.416;13.548;2023-02-22T05:56:10;101271.22;;;5.02;100.00
68594;BME280;55563;52.416;13.548;2023-02-22T05:58:11;101269.25;;;4.91;100.00
68594;BME280;55563;52.416;13.548;2023-02-22T06:00:18;101276.69;;;4.81;100.00
68594;BME280;55563;52.416;13.548;2023-02-22T06:02:19;101274.31;;;4.79;100.00
68594;BME280;55563;52.416;13.548;2023-02-22T06:04:19;101267.44;;;4.92;100.00
68594;BME280;55563;52.416;13.548;2023-02-22T06:06:20;101268.06;;;4.94;100.00
68594;BME280;55563;52.416;13.548;2023-02-22T06:08:21;101274.47;;;4.91;100.00
68594;BME280;55563;52.416;13.548;2023-02-22T06:10:22;101268.06;;;4.94;100.00
68594;BME280;55563;52.416;13.548;2023-02-22T06:12:23;101274.31;;;4.79;100.00
68594;BME280;55563;52.416;13.548;2023-02-22T06:14:23;101270.66;;;4.87;100.00
68594;BME280;55563;52.416;13.548;2023-02-22T06:16:24;101273.66;;;4.91;100.00
68594;BME280;55563;52.416;13.548;2023-02-22T06:18:25;101281.09;;;4.87;100.00
68594;BME280;55563;52.416;13.548;2023-02-22T06:20:28;101275.25;;;4.92;100.00
68594;BME280;55563;52.416;13.548;2023-02-22T06:22:29;101278.47;;;4.87;100.00
68594;BME280;55563;52.416;13.548;2023-02-22T06:24:30;101279.91;;;4.83;100.00
68594;BME280;55563;52.416;13.548;2023-02-22T06:26:30;101280.88;;;4.89;100.00
68594;BME280;55563;52.416;13.548;2023-02-22T06:28:31;101275.06;;;4.93;100.00
68594;BME280;55563;52.416;13.548;2023-02-22T06:30:32;101275.44;;;4.97;100.00
68594;BME280;55563;52.416;13.548;2023-02-22T06:32:32;101283.88;;;4.99;100.00
68594;BME280;55563;52.416;13.548;2023-02-22T06:34:34;101287.72;;;4.83;100.00
68594;BME280;55563;52.416;13.548;2023-02-22T06:36:35;101288.50;;;4.77;100.00
68594;BME280;55563;52.416;13.548;2023-02-22T06:38:36;101296.28;;;4.90;100.00
68594;BME280;55563;52.416;13.548;2023-02-22T06:40:37;101295.28;;;4.98;100.00
68594;BME280;55563;52.416;13.548;2023-02-22T06:42:38;101299.09;;;4.95;100.00
68594;BME280;55563;52.416;13.548;2023-02-22T06:44:39;101304.91;;;4.97;100.00
68594;BME280;55563;52.416;13.548;2023-02-22T06:46:46;101303.28;;;5.03;100.00
68594;BME280;55563;52.416;13.548;2023-02-22T06:48:48;101295.50;;;4.90;100.00
68594;BME280;55563;52.416;13.548;2023-02-22T06:50:51;101301.88;;;5.00;100.00
68594;BME280;55563;52.416;13.548;2023-02-22T06:52:52;101303.47;;;5.08;100.00
68594;BME280;55563;52.416;13.548;2023-02-22T06:54:53;101308.88;;;5.06;100.00
68594;BME280;55563;52.416;13.548;2023-02-22T06:56:53;101305.03;;;5.15;100.00
68594;BME280;55563;52.416;13.548;2023-02-22T06:58:55;101312.44;;;5.18;100.00
68594;BME280;55563;52.416;13.548;2023-02-22T07:00:56;101303.41;;;5.21;100.00
68594;BME280;55563;52.416;13.548;2023-02-22T07:02:57;101300.19;;;5.25;100.00
68594;BME280;55563;52.416;13.548;2023-02-22T07:04:58;101302.63;;;5.20;100.00
68594;BME280;55563;52.416;13.548;2023-02-22T07:06:59;101310.41;;;5.27;100.00
68594;BME280;55563;52.416;13.548;2023-02-22T07:09:00;101307.19;;;5.32;100.00
68594;BME280;55563;52.416;13.548;2023-02-22T07:11:00;101303.97;;;5.36;100.00
68594;BME280;55563;52.416;13.548;2023-02-22T07:13:01;101305.78;;;5.36;100.00
68594;BME280;55563;52.416;13.548;2023-02-22T07:15:02;101307.38;;;5.37;100.00
68594;BME280;55563;52.416;13.548;2023-02-22T07:17:03;101312.59;;;5.37;100.00
68594;BME280;55563;52.416;13.548;2023-02-22T07:19:03;101309.56;;;5.40;100.00
68594;BME280;55563;52.416;13.548;2023-02-22T07:21:05;101310.94;;;5.42;100.00
68594;BME280;55563;52.416;13.548;2023-02-22T07:23:05;101315.31;;;5.48;100.00
68594;BME280;55563;52.416;13.548;2023-02-22T07:25:08;101317.31;;;5.53;100.00
68594;BME280;55563;52.416;13.548;2023-02-22T07:27:09;101314.31;;;5.56;100.00
68594;BME280;55563;52.416;13.548;2023-02-22T07:29:10;101317.09;;;5.61;100.00
68594;BME280;55563;52.416;13.548;2023-02-22T07:31:11;101306.03;;;5.65;100.00
68594;BME280;55563;52.416;13.548;2023-02-22T07:33:12;101315.59;;;5.71;100.00
68594;BME280;55563;52.416;13.548;2023-02-22T07:35:16;101310.78;;;5.75;100.00
68594;BME280;55563;52.416;13.548;2023-02-22T07:37:17;101310.56;;;5.77;100.00
68594;BME280;55563;52.416;13.548;2023-02-22T07:39:18;101307.94;;;5.77;100.00
68594;BME280;55563;52.416;13.548;2023-02-22T07:41:19;101313.34;;;5.82;100.00
68594;BME280;55563;52.416;13.548;2023-02-22T07:43:21;101311.34;;;5.84;100.00
68594;BME280;55563;52.416;13.548;2023-02-22T07:45:23;101308.31;;;5.87;100.00
68594;BME280;55563;52.416;13.548;2023-02-22T07:47:24;101306.53;;;5.87;100.00
68594;BME280;55563;52.416;13.548;2023-02-22T07:49:25;101308.50;;;5.92;100.00
68594;BME280;55563;52.416;13.548;2023-02-22T07:51:26;101306.69;;;5.92;100.00
68594;BME280;55563;52.416;13.548;2023-02-22T07:53:29;101304.25;;;5.97;100.00
68594;BME280;55563;52.416;13.548;2023-02-22T07:55:32;101308.22;;;6.00;100.00
68594;BME280;55563;52.416;13.548;2023-02-22T07:57:33;101306.03;;;6.03;100.00
68594;BME280;55563;52.416;13.548;2023-02-22T07:59:34;101304.78;;;6.06;100.00
68594;BME280;55563;52.416;13.548;2023-02-22T08:01:35;101303.19;;;6.05;100.00
68594;BME280;55563;52.416;13.548;2023-02-22T08:03:35;101311.81;;;6.05;100.00
68594;BME280;55563;52.416;13.548;2023-02-22T08:05:38;101304.38;;;6.09;100.00
68594;BME280;55563;52.416;13.548;2023-02-22T08:07:39;101310.34;;;6.16;100.00
68594;BME280;55563;52.416;13.548;2023-02-22T08:09:40;101302.06;;;6.19;100.00
68594;BME280;55563;52.416;13.548;2023-02-22T08:11:40;101307.28;;;6.19;100.00
68594;BME280;55563;52.416;13.548;2023-02-22T08:13:41;101307.44;;;6.24;100.00
68594;BME280;55563;52.416;13.548;2023-02-22T08:15:42;101313.88;;;6.28;100.00
68594;BME280;55563;52.416;13.548;2023-02-22T08:17:43;101307.63;;;6.29;100.00
68594;BME280;55563;52.416;13.548;2023-02-22T08:19:44;101311.47;;;6.27;100.00
68594;BME280;55563;52.416;13.548;2023-02-22T08:21:45;101312.03;;;6.29;100.00
68594;BME280;55563;52.416;13.548;2023-02-22T08:23:50;101311.81;;;6.30;100.00
68594;BME280;55563;52.416;13.548;2023-02-22T08:25:52;101309.59;;;6.34;100.00
68594;BME280;55563;52.416;13.548;2023-02-22T08:27:57;101309.53;;;6.40;100.00
68594;BME280;55563;52.416;13.548;2023-02-22T08:30:00;101305.47;;;6.44;100.00
68594;BME280;55563;52.416;13.548;2023-02-22T08:32:01;101304.84;;;6.49;100.00
68594;BME280;55563;52.416;13.548;2023-02-22T08:34:02;101307.41;;;6.55;100.00
68594;BME280;55563;52.416;13.548;2023-02-22T08:36:03;101310.38;;;6.59;100.00
68594;BME280;55563;52.416;13.548;2023-02-22T08:38:05;101305.34;;;6.57;100.00
68594;BME280;55563;52.416;13.548;2023-02-22T08:40:07;101304.06;;;6.67;100.00
68594;BME280;55563;52.416;13.548;2023-02-22T08:42:08;101306.41;;;6.56;100.00
68594;BME280;55563;52.416;13.548;2023-02-22T08:44:09;101303.28;;;6.66;100.00
68594;BME280;55563;52.416;13.548;2023-02-22T08:46:10;101299.63;;;6.67;100.00
68594;BME280;55563;52.416;13.548;2023-02-22T08:48:12;101304.00;;;6.73;100.00
68594;BME280;55563;52.416;13.548;2023-02-22T08:50:17;101302.94;;;6.81;100.00
68594;BME280;55563;52.416;13.548;2023-02-22T08:52:20;101301.09;;;6.81;100.00
68594;BME280;55563;52.416;13.548;2023-02-22T08:54:21;101299.81;;;6.90;100.00
68594;BME280;55563;52.416;13.548;2023-02-22T08:56:22;101297.13;;;6.97;100.00
68594;BME280;55563;52.416;13.548;2023-02-22T08:58:22;101296.25;;;7.03;100.00
68594;BME280;55563;52.416;13.548;2023-02-22T09:00:23;101307.53;;;7.04;100.00
68594;BME280;55563;52.416;13.548;2023-02-22T09:02:24;101302.16;;;6.98;100.00
68594;BME280;55563;52.416;13.548;2023-02-22T09:04:25;101297.63;;;7.06;100.00
68594;BME280;55563;52.416;13.548;2023-02-22T09:06:26;101300.38;;;7.11;100.00
68594;BME280;55563;52.416;13.548;2023-02-22T09:08:26;101292.03;;;7.20;100.00
68594;BME280;55563;52.416;13.548;2023-02-22T09:10:30;101302.88;;;7.24;100.00
68594;BME280;55563;52.416;13.548;2023-02-22T09:12:31;101297.53;;;7.30;100.00
68594;BME280;55563;52.416;13.548;2023-02-22T09:14:32;101297.31;;;7.32;100.00
68594;BME280;55563;52.416;13.548;2023-02-22T09:16:33;101297.03;;;7.22;100.00
68594;BME280;55563;52.416;13.548;2023-02-22T09:18:37;101299.44;;;7.23;100.00
68594;BME280;55563;52.416;13.548;2023-02-22T09:20:38;101305.84;;;7.27;100.00
68594;BME280;55563;52.416;13.548;2023-02-22T09:22:39;101301.63;;;7.26;100.00
68594;BME280;55563;52.416;13.548;2023-02-22T09:24:41;101306.47;;;7.41;100.00
68594;BME280;55563;52.416;13.548;2023-02-22T09:26:45;101309.22;;;7.46;100.00
68594;BME280;55563;52.416;13.548;2023-02-22T09:28:46;101299.91;;;7.50;100.00
68594;BME280;55563;52.416;13.548;2023-02-22T09:30:47;101304.13;;;7.51;100.00
68594;BME280;55563;52.416;13.548;2023-02-22T09:32:50;101303.31;;;7.51;100.00
68594;BME280;55563;52.416;13.548;2023-02-22T09:34:50;101306.28;;;7.54;100.00
68594;BME280;55563;52.416;13.548;2023-02-22T09:36:51;101302.72;;;7.67;100.00
68594;BME280;55563;52.416;13.548;2023-02-22T09:38:52;101303.13;;;7.64;100.00
68594;BME280;55563;52.416;13.548;2023-02-22T09:41:05;101296.94;;;7.76;100.00
68594;BME280;55563;52.416;13.548;2023-02-22T09:45:53;101291.59;;;7.83;100.00
68594;BME280;55563;52.416;13.548;2023-02-22T09:47:59;101291.38;;;7.84;100.00
68594;BME280;55563;52.416;13.548;2023-02-22T09:50:09;101289.69;;;8.02;100.00
68594;BME280;55563;52.416;13.548;2023-02-22T09:52:20;101288.56;;;7.98;100.00
68594;BME280;55563;52.416;13.548;2023-02-22T09:54:28;101291.75;;;8.00;100.00
68594;BME280;55563;52.416;13.548;2023-02-22T09:56:34;101286.66;;;8.05;100.00
68594;BME280;55563;52.416;13.548;2023-02-22T09:58:43;101285.16;;;8.09;100.00
68594;BME280;55563;52.416;13.548;2023-02-22T10:00:47;101282.78;;;8.07;100.00
68594;BME280;55563;52.416;13.548;2023-02-22T10:05:26;101284.03;;;8.16;100.00
68594;BME280;55563;52.416;13.548;2023-02-22T10:07:32;101280.06;;;8.25;100.00
68594;BME280;55563;52.416;13.548;2023-02-22T10:09:40;101285.88;;;8.27;100.00
68594;BME280;55563;52.416;13.548;2023-02-22T10:11:51;101282.66;;;8.25;100.00
68594;BME280;55563;52.416;13.548;2023-02-22T10:14:15;101283.25;;;8.27;100.00
68594;BME280;55563;52.416;13.548;2023-02-22T10:16:46;101276.91;;;8.35;100.00
68594;BME280;55563;52.416;13.548;2023-02-22T10:23:58;101279.66;;;8.52;100.00
68594;BME280;55563;52.416;13.548;2023-02-22T10:26:14;101273.72;;;8.56;100.00
68594;BME280;55563;52.416;13.548;2023-02-22T10:28:22;101270.06;;;8.46;100.00
68594;BME280;55563;52.416;13.548;2023-02-22T10:30:29;101262.00;;;8.47;100.00
68594;BME280;55563;52.416;13.548;2023-02-22T10:32:41;101267.00;;;8.49;100.00
68594;BME280;55563;52.416;13.548;2023-02-22T10:34:47;101267.66;;;8.44;100.00
68594;BME280;55563;52.416;13.548;2023-02-22T10:36:54;101263.25;;;8.68;100.00
68594;BME280;55563;52.416;13.548;2023-02-22T10:39:03;101265.72;;;8.74;100.00
68594;BME280;55563;52.416;13.548;2023-02-22T10:41:18;101257.16;;;8.79;100.00
68594;BME280;55563;52.416;13.548;2023-02-22T10:43:20;101259.72;;;8.62;100.00
68594;BME280;55563;52.416;13.548;2023-02-22T10:45:25;101262.88;;;8.64;100.00
68594;BME280;55563;52.416;13.548;2023-02-22T10:47:26;101252.31;;;9.11;100.00
68594;BME280;55563;52.416;13.548;2023-02-22T10:49:34;101252.81;;;8.96;100.00
68594;BME280;55563;52.416;13.548;2023-02-22T10:51:35;101254.22;;;8.75;100.00
68594;BME280;55563;52.416;13.548;2023-02-22T10:53:37;101256.34;;;8.90;100.00
68594;BME280;55563;52.416;13.548;2023-02-22T10:56:20;101260.91;;;8.83;100.00
68594;BME280;55563;52.416;13.548;2023-02-22T10:58:20;101254.44;;;8.86;100.00
68594;BME280;55563;52.416;13.548;2023-02-22T11:00:28;101258.94;;;9.02;100.00
68594;BME280;55563;52.416;13.548;2023-02-22T11:02:31;101261.44;;;9.08;100.00
68594;BME280;55563;52.416;13.548;2023-02-22T11:04:45;101248.78;;;9.05;100.00